sensor_id;sensor_type;location;lat;lon;timestamp;P1;durP1;ratioP1;P2;durP2;ratioP2
1799;SDS011;919;48.274;12.292;2022-08-21T00:00:44;4.93;;;4.53;;
1799;SDS011;919;48.274;12.292;2022-08-21T00:03:12;4.30;;;4.00;;
1799;SDS011;919;48.274;12.292;2022-08-21T00:05:42;3.87;;;3.57;;
1799;SDS011;919;48.274;12.292;2022-08-21T00:08:11;4.40;;;4.00;;
1799;SDS011;919;48.274;12.292;2022-08-21T00:10:38;3.33;;;3.03;;
1799;SDS011;919;48.274;12.292;2022-08-21T00:13:06;3.40;;;3.10;;
1799;SDS011;919;48.274;12.292;2022-08-21T00:15:34;3.10;;;2.90;;
1799;SDS011;919;48.274;12.292;2022-08-21T00:18:03;2.50;;;2.30;;
1799;SDS011;919;48.274;12.292;2022-08-21T00:20:31;2.67;;;2.47;;
1799;SDS011;919;48.274;12.292;2022-08-21T00:22:59;3.10;;;2.90;;
1799;SDS011;919;48.274;12.292;2022-08-21T00:25:27;4.70;;;2.40;;
1799;SDS011;919;48.274;12.292;2022-08-21T00:27:53;2.73;;;2.53;;
1799;SDS011;919;48.274;12.292;2022-08-21T00:30:21;2.70;;;2.50;;
1799;SDS011;919;48.274;12.292;2022-08-21T00:32:50;2.83;;;2.53;;
1799;SDS011;919;48.274;12.292;2022-08-21T00:35:19;2.90;;;2.70;;
1799;SDS011;919;48.274;12.292;2022-08-21T00:37:47;3.60;;;3.30;;
1799;SDS011;919;48.274;12.292;2022-08-21T00:40:17;3.50;;;3.23;;
1799;SDS011;919;48.274;12.292;2022-08-21T00:42:48;3.90;;;3.60;;
1799;SDS011;919;48.274;12.292;2022-08-21T00:45:15;5.90;;;5.40;;
1799;SDS011;919;48.274;12.292;2022-08-21T00:47:42;6.33;;;5.77;;
1799;SDS011;919;48.274;12.292;2022-08-21T00:50:09;6.63;;;5.50;;
1799;SDS011;919;48.274;12.292;2022-08-21T00:52:37;5.47;;;5.07;;
1799;SDS011;919;48.274;12.292;2022-08-21T00:55:06;3.70;;;3.40;;
1799;SDS011;919;48.274;12.292;2022-08-21T00:57:37;3.13;;;2.83;;
1799;SDS011;919;48.274;12.292;2022-08-21T01:00:07;2.97;;;2.77;;
1799;SDS011;919;48.274;12.292;2022-08-21T01:02:37;3.23;;;2.80;;
1799;SDS011;919;48.274;12.292;2022-08-21T01:05:04;3.20;;;3.00;;
1799;SDS011;919;48.274;12.292;2022-08-21T01:07:32;3.80;;;3.50;;
1799;SDS011;919;48.274;12.292;2022-08-21T01:09:59;5.83;;;3.60;;
1799;SDS011;919;48.274;12.292;2022-08-21T01:12:25;3.17;;;2.90;;
1799;SDS011;919;48.274;12.292;2022-08-21T01:14:53;3.70;;;3.10;;
1799;SDS011;919;48.274;12.292;2022-08-21T01:17:20;4.00;;;2.83;;
1799;SDS011;919;48.274;12.292;2022-08-21T01:19:47;3.37;;;3.17;;
1799;SDS011;919;48.274;12.292;2022-08-21T01:22:15;2.67;;;2.47;;
1799;SDS011;919;48.274;12.292;2022-08-21T01:24:42;2.80;;;2.60;;
1799;SDS011;919;48.274;12.292;2022-08-21T01:27:09;4.37;;;3.70;;
1799;SDS011;919;48.274;12.292;2022-08-21T01:29:38;2.60;;;2.40;;
1799;SDS011;919;48.274;12.292;2022-08-21T01:32:12;2.80;;;2.60;;
1799;SDS011;919;48.274;12.292;2022-08-21T01:34:43;2.70;;;2.50;;
1799;SDS011;919;48.274;12.292;2022-08-21T01:37:11;2.60;;;2.40;;
1799;SDS011;919;48.274;12.292;2022-08-21T01:39:40;2.20;;;2.00;;
1799;SDS011;919;48.274;12.292;2022-08-21T01:42:08;2.27;;;2.17;;
1799;SDS011;919;48.274;12.292;2022-08-21T01:44:35;2.80;;;1.93;;
1799;SDS011;919;48.274;12.292;2022-08-21T01:47:04;3.17;;;2.17;;
1799;SDS011;919;48.274;12.292;2022-08-21T01:49:32;2.33;;;2.13;;
1799;SDS011;919;48.274;12.292;2022-08-21T01:51:59;2.43;;;2.20;;
1799;SDS011;919;48.274;12.292;2022-08-21T01:54:26;2.70;;;2.10;;
1799;SDS011;919;48.274;12.292;2022-08-21T01:56:54;2.53;;;2.33;;
1799;SDS011;919;48.274;12.292;2022-08-21T01:59:21;3.10;;;2.80;;
1799;SDS011;919;48.274;12.292;2022-08-21T02:01:49;2.87;;;2.67;;
1799;SDS011;919;48.274;12.292;2022-08-21T02:04:17;2.60;;;2.40;;
1799;SDS011;919;48.274;12.292;2022-08-21T02:06:44;2.73;;;2.10;;
1799;SDS011;919;48.274;12.292;2022-08-21T02:09:10;2.87;;;2.50;;
1799;SDS011;919;48.274;12.292;2022-08-21T02:11:38;3.40;;;3.10;;
1799;SDS011;919;48.274;12.292;2022-08-21T02:14:06;4.30;;;4.00;;
1799;SDS011;919;48.274;12.292;2022-08-21T02:16:33;6.43;;;5.83;;
1799;SDS011;919;48.274;12.292;2022-08-21T02:19:00;7.53;;;6.33;;
1799;SDS011;919;48.274;12.292;2022-08-21T02:21:27;6.10;;;5.50;;
1799;SDS011;919;48.274;12.292;2022-08-21T02:23:54;5.37;;;4.87;;
1799;SDS011;919;48.274;12.292;2022-08-21T02:26:20;8.13;;;4.13;;
1799;SDS011;919;48.274;12.292;2022-08-21T02:28:47;5.17;;;4.77;;
1799;SDS011;919;48.274;12.292;2022-08-21T02:31:15;4.50;;;4.10;;
1799;SDS011;919;48.274;12.292;2022-08-21T02:33:42;4.57;;;4.27;;
1799;SDS011;919;48.274;12.292;2022-08-21T02:36:09;4.53;;;4.20;;
1799;SDS011;919;48.274;12.292;2022-08-21T02:38:37;4.90;;;4.40;;
1799;SDS011;919;48.274;12.292;2022-08-21T02:41:06;4.70;;;4.30;;
1799;SDS011;919;48.274;12.292;2022-08-21T02:43:34;4.77;;;3.43;;
1799;SDS011;919;48.274;12.292;2022-08-21T02:46:02;7.13;;;3.10;;
1799;SDS011;919;48.274;12.292;2022-08-21T02:48:32;2.60;;;2.40;;
1799;SDS011;919;48.274;12.292;2022-08-21T02:51:01;2.67;;;1.90;;
1799;SDS011;919;48.274;12.292;2022-08-21T02:53:31;2.73;;;2.53;;
1799;SDS011;919;48.274;12.292;2022-08-21T02:56:00;2.63;;;2.43;;
1799;SDS011;919;48.274;12.292;2022-08-21T02:58:29;3.70;;;3.40;;
1799;SDS011;919;48.274;12.292;2022-08-21T03:00:58;4.03;;;3.20;;
1799;SDS011;919;48.274;12.292;2022-08-21T03:03:25;3.87;;;3.57;;
1799;SDS011;919;48.274;12.292;2022-08-21T03:05:54;2.60;;;2.40;;
1799;SDS011;919;48.274;12.292;2022-08-21T03:08:22;2.40;;;2.20;;
1799;SDS011;919;48.274;12.292;2022-08-21T03:10:49;2.70;;;2.50;;
1799;SDS011;919;48.274;12.292;2022-08-21T03:13:18;2.20;;;2.00;;
1799;SDS011;919;48.274;12.292;2022-08-21T03:15:46;2.27;;;2.17;;
1799;SDS011;919;48.274;12.292;2022-08-21T03:18:14;2.60;;;2.40;;
1799;SDS011;919;48.274;12.292;2022-08-21T03:20:42;1.70;;;1.60;;
1799;SDS011;919;48.274;12.292;2022-08-21T03:23:11;1.90;;;1.80;;
1799;SDS011;919;48.274;12.292;2022-08-21T03:25:39;3.57;;;3.30;;
1799;SDS011;919;48.274;12.292;2022-08-21T03:28:07;3.80;;;3.50;;
1799;SDS011;919;48.274;12.292;2022-08-21T03:30:35;3.40;;;3.20;;
1799;SDS011;919;48.274;12.292;2022-08-21T03:33:01;3.30;;;3.00;;
1799;SDS011;919;48.274;12.292;2022-08-21T03:35:29;3.30;;;3.10;;
1799;SDS011;919;48.274;12.292;2022-08-21T03:37:56;3.60;;;3.30;;
1799;SDS011;919;48.274;12.292;2022-08-21T03:40:24;3.03;;;2.70;;
1799;SDS011;919;48.274;12.292;2022-08-21T03:42:50;2.63;;;2.43;;
1799;SDS011;919;48.274;12.292;2022-08-21T03:45:18;2.00;;;1.90;;
1799;SDS011;919;48.274;12.292;2022-08-21T03:47:52;1.97;;;1.87;;
1799;SDS011;919;48.274;12.292;2022-08-21T03:50:20;1.47;;;1.37;;
1799;SDS011;919;48.274;12.292;2022-08-21T03:52:48;2.20;;;2.00;;
1799;SDS011;919;48.274;12.292;2022-08-21T03:55:15;2.40;;;2.20;;
1799;SDS011;919;48.274;12.292;2022-08-21T03:57:43;2.13;;;1.97;;
1799;SDS011;919;48.274;12.292;2022-08-21T04:00:11;3.97;;;2.03;;
1799;SDS011;919;48.274;12.292;2022-08-21T04:02:39;1.93;;;1.83;;
1799;SDS011;919;48.274;12.292;2022-08-21T04:05:06;2.20;;;2.00;;
1799;SDS011;919;48.274;12.292;2022-08-21T04:07:33;5.83;;;1.90;;
1799;SDS011;919;48.274;12.292;2022-08-21T04:10:01;2.17;;;1.73;;
1799;SDS011;919;48.274;12.292;2022-08-21T04:12:28;2.30;;;2.10;;
1799;SDS011;919;48.274;12.292;2022-08-21T04:14:56;2.00;;;1.90;;
1799;SDS011;919;48.274;12.292;2022-08-21T04:17:23;2.07;;;1.97;;
1799;SDS011;919;48.274;12.292;2022-08-21T04:19:50;1.93;;;1.83;;
1799;SDS011;919;48.274;12.292;2022-08-21T04:22:16;2.47;;;2.27;;
1799;SDS011;919;48.274;12.292;2022-08-21T04:24:43;2.13;;;1.93;;
1799;SDS011;919;48.274;12.292;2022-08-21T04:27:10;2.30;;;2.13;;
1799;SDS011;919;48.274;12.292;2022-08-21T04:29:37;7.63;;;3.20;;
1799;SDS011;919;48.274;12.292;2022-08-21T04:32:05;2.90;;;2.70;;
1799;SDS011;919;48.274;12.292;2022-08-21T04:34:32;3.83;;;3.23;;
1799;SDS011;919;48.274;12.292;2022-08-21T04:36:59;3.13;;;2.83;;
1799;SDS011;919;48.274;12.292;2022-08-21T04:39:25;2.70;;;2.50;;
1799;SDS011;919;48.274;12.292;2022-08-21T04:41:52;2.60;;;2.40;;
1799;SDS011;919;48.274;12.292;2022-08-21T04:44:19;3.00;;;2.70;;
1799;SDS011;919;48.274;12.292;2022-08-21T04:46:45;3.10;;;2.20;;
1799;SDS011;919;48.274;12.292;2022-08-21T04:49:14;2.00;;;1.80;;
1799;SDS011;919;48.274;12.292;2022-08-21T04:51:40;2.50;;;2.30;;
1799;SDS011;919;48.274;12.292;2022-08-21T04:54:08;1.97;;;1.87;;
1799;SDS011;919;48.274;12.292;2022-08-21T04:56:39;2.20;;;2.00;;
1799;SDS011;919;48.274;12.292;2022-08-21T04:59:13;2.27;;;2.07;;
1799;SDS011;919;48.274;12.292;2022-08-21T05:01:44;1.73;;;1.63;;
1799;SDS011;919;48.274;12.292;2022-08-21T05:04:12;2.30;;;2.10;;
1799;SDS011;919;48.274;12.292;2022-08-21T05:06:44;5.17;;;2.13;;
1799;SDS011;919;48.274;12.292;2022-08-21T05:09:14;1.83;;;1.73;;
1799;SDS011;919;48.274;12.292;2022-08-21T05:11:42;2.00;;;1.90;;
1799;SDS011;919;48.274;12.292;2022-08-21T05:14:10;1.83;;;1.73;;
1799;SDS011;919;48.274;12.292;2022-08-21T05:16:37;2.07;;;1.97;;
1799;SDS011;919;48.274;12.292;2022-08-21T05:19:05;2.83;;;2.30;;
1799;SDS011;919;48.274;12.292;2022-08-21T05:21:34;2.00;;;1.90;;
1799;SDS011;919;48.274;12.292;2022-08-21T05:24:01;2.80;;;1.60;;
1799;SDS011;919;48.274;12.292;2022-08-21T05:26:28;2.10;;;2.00;;
1799;SDS011;919;48.274;12.292;2022-08-21T05:28:55;1.83;;;1.73;;
1799;SDS011;919;48.274;12.292;2022-08-21T05:31:22;1.97;;;1.87;;
1799;SDS011;919;48.274;12.292;2022-08-21T05:33:49;1.93;;;1.83;;
1799;SDS011;919;48.274;12.292;2022-08-21T05:36:16;2.20;;;1.83;;
1799;SDS011;919;48.274;12.292;2022-08-21T05:38:45;1.80;;;1.70;;
1799;SDS011;919;48.274;12.292;2022-08-21T05:41:12;2.07;;;1.87;;
1799;SDS011;919;48.274;12.292;2022-08-21T05:43:39;2.27;;;2.07;;
1799;SDS011;919;48.274;12.292;2022-08-21T05:46:06;3.90;;;2.50;;
1799;SDS011;919;48.274;12.292;2022-08-21T05:48:34;2.00;;;1.90;;
1799;SDS011;919;48.274;12.292;2022-08-21T05:51:03;1.80;;;1.70;;
1799;SDS011;919;48.274;12.292;2022-08-21T05:53:31;1.63;;;1.53;;
1799;SDS011;919;48.274;12.292;2022-08-21T05:55:59;1.73;;;1.63;;
1799;SDS011;919;48.274;12.292;2022-08-21T05:58:28;2.20;;;2.00;;
1799;SDS011;919;48.274;12.292;2022-08-21T06:00:56;3.30;;;2.00;;
1799;SDS011;919;48.274;12.292;2022-08-21T06:03:24;1.87;;;1.77;;
1799;SDS011;919;48.274;12.292;2022-08-21T06:05:53;2.13;;;1.90;;
1799;SDS011;919;48.274;12.292;2022-08-21T06:08:21;3.27;;;2.03;;
1799;SDS011;919;48.274;12.292;2022-08-21T06:10:48;2.07;;;1.70;;
1799;SDS011;919;48.274;12.292;2022-08-21T06:13:18;2.00;;;1.90;;
1799;SDS011;919;48.274;12.292;2022-08-21T06:15:45;1.87;;;1.77;;
1799;SDS011;919;48.274;12.292;2022-08-21T06:18:13;2.53;;;1.80;;
1799;SDS011;919;48.274;12.292;2022-08-21T06:20:40;2.30;;;2.10;;
1799;SDS011;919;48.274;12.292;2022-08-21T06:23:08;2.47;;;2.27;;
1799;SDS011;919;48.274;12.292;2022-08-21T06:25:35;2.23;;;2.03;;
1799;SDS011;919;48.274;12.292;2022-08-21T06:28:02;2.50;;;2.20;;
1799;SDS011;919;48.274;12.292;2022-08-21T06:30:31;2.17;;;1.83;;
1799;SDS011;919;48.274;12.292;2022-08-21T06:32:58;2.40;;;2.20;;
1799;SDS011;919;48.274;12.292;2022-08-21T06:35:28;2.20;;;2.00;;
1799;SDS011;919;48.274;12.292;2022-08-21T06:38:32;2.60;;;2.40;;
1799;SDS011;919;48.274;12.292;2022-08-21T06:40:59;2.17;;;2.00;;
1799;SDS011;919;48.274;12.292;2022-08-21T06:43:26;2.30;;;2.10;;
1799;SDS011;919;48.274;12.292;2022-08-21T06:45:54;1.87;;;1.77;;
1799;SDS011;919;48.274;12.292;2022-08-21T06:48:21;2.33;;;2.13;;
1799;SDS011;919;48.274;12.292;2022-08-21T06:50:48;2.40;;;2.20;;
1799;SDS011;919;48.274;12.292;2022-08-21T06:53:15;2.33;;;2.13;;
1799;SDS011;919;48.274;12.292;2022-08-21T06:55:43;2.50;;;2.30;;
1799;SDS011;919;48.274;12.292;2022-08-21T06:58:10;2.37;;;2.17;;
1799;SDS011;919;48.274;12.292;2022-08-21T07:00:38;2.97;;;2.53;;
1799;SDS011;919;48.274;12.292;2022-08-21T07:03:15;3.80;;;2.40;;
1799;SDS011;919;48.274;12.292;2022-08-21T07:05:42;5.47;;;2.60;;
1799;SDS011;919;48.274;12.292;2022-08-21T07:08:09;2.93;;;2.50;;
1799;SDS011;919;48.274;12.292;2022-08-21T07:10:36;2.83;;;2.63;;
1799;SDS011;919;48.274;12.292;2022-08-21T07:13:03;2.57;;;2.37;;
1799;SDS011;919;48.274;12.292;2022-08-21T07:15:30;8.27;;;3.20;;
1799;SDS011;919;48.274;12.292;2022-08-21T07:17:57;3.17;;;2.90;;
1799;SDS011;919;48.274;12.292;2022-08-21T07:20:26;3.27;;;2.73;;
1799;SDS011;919;48.274;12.292;2022-08-21T07:22:54;6.70;;;4.90;;
1799;SDS011;919;48.274;12.292;2022-08-21T07:25:21;7.73;;;5.17;;
1799;SDS011;919;48.274;12.292;2022-08-21T07:27:48;4.20;;;3.70;;
1799;SDS011;919;48.274;12.292;2022-08-21T07:30:15;3.10;;;2.40;;
1799;SDS011;919;48.274;12.292;2022-08-21T07:32:41;3.33;;;3.00;;
1799;SDS011;919;48.274;12.292;2022-08-21T07:35:09;2.90;;;2.60;;
1799;SDS011;919;48.274;12.292;2022-08-21T07:37:37;2.90;;;2.70;;
1799;SDS011;919;48.274;12.292;2022-08-21T07:40:04;2.93;;;2.67;;
1799;SDS011;919;48.274;12.292;2022-08-21T07:42:31;3.40;;;3.03;;
1799;SDS011;919;48.274;12.292;2022-08-21T07:44:58;4.60;;;2.93;;
1799;SDS011;919;48.274;12.292;2022-08-21T07:47:25;2.97;;;2.67;;
1799;SDS011;919;48.274;12.292;2022-08-21T07:49:52;3.07;;;2.87;;
1799;SDS011;919;48.274;12.292;2022-08-21T07:52:18;2.63;;;2.43;;
1799;SDS011;919;48.274;12.292;2022-08-21T07:54:48;3.13;;;2.83;;
1799;SDS011;919;48.274;12.292;2022-08-21T07:57:14;3.20;;;2.50;;
1799;SDS011;919;48.274;12.292;2022-08-21T07:59:41;2.70;;;2.50;;
1799;SDS011;919;48.274;12.292;2022-08-21T08:02:08;3.33;;;3.00;;
1799;SDS011;919;48.274;12.292;2022-08-21T08:04:34;4.23;;;3.83;;
1799;SDS011;919;48.274;12.292;2022-08-21T08:07:01;3.33;;;3.03;;
1799;SDS011;919;48.274;12.292;2022-08-21T08:09:28;4.00;;;3.60;;
1799;SDS011;919;48.274;12.292;2022-08-21T08:11:56;4.73;;;4.23;;
1799;SDS011;919;48.274;12.292;2022-08-21T08:14:23;4.13;;;3.60;;
1799;SDS011;919;48.274;12.292;2022-08-21T08:16:50;4.20;;;3.57;;
1799;SDS011;919;48.274;12.292;2022-08-21T08:19:16;3.40;;;3.10;;
1799;SDS011;919;48.274;12.292;2022-08-21T08:21:43;3.50;;;3.20;;
1799;SDS011;919;48.274;12.292;2022-08-21T08:24:10;4.37;;;3.23;;
1799;SDS011;919;48.274;12.292;2022-08-21T08:26:36;3.53;;;3.23;;
1799;SDS011;919;48.274;12.292;2022-08-21T08:29:05;3.63;;;3.30;;
1799;SDS011;919;48.274;12.292;2022-08-21T08:31:31;3.87;;;3.50;;
1799;SDS011;919;48.274;12.292;2022-08-21T08:33:58;3.70;;;3.40;;
1799;SDS011;919;48.274;12.292;2022-08-21T08:36:31;6.23;;;4.53;;
1799;SDS011;919;48.274;12.292;2022-08-21T08:38:59;5.23;;;3.60;;
1799;SDS011;919;48.274;12.292;2022-08-21T08:41:26;3.20;;;3.00;;
1799;SDS011;919;48.274;12.292;2022-08-21T08:44:00;5.07;;;3.70;;
1799;SDS011;919;48.274;12.292;2022-08-21T08:46:33;4.43;;;4.00;;
1799;SDS011;919;48.274;12.292;2022-08-21T08:49:06;4.47;;;4.07;;
1799;SDS011;919;48.274;12.292;2022-08-21T08:51:39;3.87;;;3.57;;
1799;SDS011;919;48.274;12.292;2022-08-21T08:54:10;3.50;;;3.23;;
1799;SDS011;919;48.274;12.292;2022-08-21T08:56:40;4.00;;;3.70;;
1799;SDS011;919;48.274;12.292;2022-08-21T08:59:07;5.00;;;4.10;;
1799;SDS011;919;48.274;12.292;2022-08-21T09:01:41;4.00;;;3.60;;
1799;SDS011;919;48.274;12.292;2022-08-21T09:04:09;4.00;;;3.70;;
1799;SDS011;919;48.274;12.292;2022-08-21T09:06:43;4.30;;;4.00;;
1799;SDS011;919;48.274;12.292;2022-08-21T09:09:22;3.70;;;3.23;;
1799;SDS011;919;48.274;12.292;2022-08-21T09:11:57;4.97;;;4.23;;
1799;SDS011;919;48.274;12.292;2022-08-21T09:14:32;3.83;;;3.53;;
1799;SDS011;919;48.274;12.292;2022-08-21T09:17:16;5.17;;;3.07;;
1799;SDS011;919;48.274;12.292;2022-08-21T09:20:08;6.83;;;3.47;;
1799;SDS011;919;48.274;12.292;2022-08-21T09:22:48;3.87;;;3.57;;
1799;SDS011;919;48.274;12.292;2022-08-21T09:25:25;4.80;;;4.40;;
1799;SDS011;919;48.274;12.292;2022-08-21T09:27:54;4.13;;;3.83;;
1799;SDS011;919;48.274;12.292;2022-08-21T09:30:24;6.07;;;4.00;;
1799;SDS011;919;48.274;12.292;2022-08-21T09:32:56;3.70;;;3.40;;
1799;SDS011;919;48.274;12.292;2022-08-21T09:35:23;4.63;;;4.20;;
1799;SDS011;919;48.274;12.292;2022-08-21T09:37:52;4.07;;;3.77;;
1799;SDS011;919;48.274;12.292;2022-08-21T09:40:32;4.67;;;3.53;;
1799;SDS011;919;48.274;12.292;2022-08-21T09:43:03;5.50;;;3.80;;
1799;SDS011;919;48.274;12.292;2022-08-21T09:45:31;2.93;;;2.73;;
1799;SDS011;919;48.274;12.292;2022-08-21T09:48:11;3.30;;;3.00;;
1799;SDS011;919;48.274;12.292;2022-08-21T09:50:40;7.70;;;7.00;;
1799;SDS011;919;48.274;12.292;2022-08-21T09:53:15;5.90;;;5.50;;
1799;SDS011;919;48.274;12.292;2022-08-21T09:55:47;4.03;;;3.73;;
1799;SDS011;919;48.274;12.292;2022-08-21T09:58:35;5.60;;;4.90;;
1799;SDS011;919;48.274;12.292;2022-08-21T10:01:03;4.37;;;4.07;;
1799;SDS011;919;48.274;12.292;2022-08-21T10:03:32;4.20;;;3.80;;
1799;SDS011;919;48.274;12.292;2022-08-21T10:06:00;3.17;;;2.87;;
1799;SDS011;919;48.274;12.292;2022-08-21T10:08:31;3.83;;;3.50;;
1799;SDS011;919;48.274;12.292;2022-08-21T10:11:01;3.53;;;3.20;;
1799;SDS011;919;48.274;12.292;2022-08-21T10:13:33;4.50;;;4.17;;
1799;SDS011;919;48.274;12.292;2022-08-21T10:16:17;3.73;;;3.43;;
1799;SDS011;919;48.274;12.292;2022-08-21T10:19:00;3.40;;;3.10;;
1799;SDS011;919;48.274;12.292;2022-08-21T10:21:38;4.17;;;3.80;;
1799;SDS011;919;48.274;12.292;2022-08-21T10:24:14;3.30;;;3.00;;
1799;SDS011;919;48.274;12.292;2022-08-21T10:27:03;3.00;;;2.80;;
1799;SDS011;919;48.274;12.292;2022-08-21T10:29:42;4.43;;;3.10;;
1799;SDS011;919;48.274;12.292;2022-08-21T10:32:19;3.77;;;2.90;;
1799;SDS011;919;48.274;12.292;2022-08-21T10:35:02;3.10;;;2.90;;
1799;SDS011;919;48.274;12.292;2022-08-21T10:37:39;3.47;;;3.17;;
1799;SDS011;919;48.274;12.292;2022-08-21T10:40:15;3.47;;;3.17;;
1799;SDS011;919;48.274;12.292;2022-08-21T10:42:53;3.60;;;3.20;;
1799;SDS011;919;48.274;12.292;2022-08-21T10:45:31;4.10;;;2.90;;
1799;SDS011;919;48.274;12.292;2022-08-21T10:48:06;3.00;;;2.80;;
1799;SDS011;919;48.274;12.292;2022-08-21T10:50:41;3.57;;;3.27;;
1799;SDS011;919;48.274;12.292;2022-08-21T10:53:16;4.47;;;3.60;;
1799;SDS011;919;48.274;12.292;2022-08-21T10:55:54;3.40;;;3.10;;
1799;SDS011;919;48.274;12.292;2022-08-21T10:58:29;3.33;;;3.13;;
1799;SDS011;919;48.274;12.292;2022-08-21T11:01:04;2.87;;;2.67;;
1799;SDS011;919;48.274;12.292;2022-08-21T11:03:41;3.00;;;2.80;;
1799;SDS011;919;48.274;12.292;2022-08-21T11:06:15;3.77;;;3.47;;
1799;SDS011;919;48.274;12.292;2022-08-21T11:08:49;5.23;;;4.73;;
1799;SDS011;919;48.274;12.292;2022-08-21T11:11:27;6.13;;;5.73;;
1799;SDS011;919;48.274;12.292;2022-08-21T11:14:00;6.10;;;5.70;;
1799;SDS011;919;48.274;12.292;2022-08-21T11:16:36;6.47;;;5.97;;
1799;SDS011;919;48.274;12.292;2022-08-21T11:19:07;6.27;;;5.77;;
1799;SDS011;919;48.274;12.292;2022-08-21T11:21:42;5.60;;;5.20;;
1799;SDS011;919;48.274;12.292;2022-08-21T11:24:17;5.63;;;5.23;;
1799;SDS011;919;48.274;12.292;2022-08-21T11:26:51;6.83;;;6.23;;
1799;SDS011;919;48.274;12.292;2022-08-21T11:29:24;5.60;;;5.20;;
1799;SDS011;919;48.274;12.292;2022-08-21T11:31:58;4.60;;;4.30;;
1799;SDS011;919;48.274;12.292;2022-08-21T11:34:40;3.93;;;3.53;;
1799;SDS011;919;48.274;12.292;2022-08-21T11:37:15;3.90;;;3.60;;
1799;SDS011;919;48.274;12.292;2022-08-21T11:39:50;4.03;;;3.73;;
1799;SDS011;919;48.274;12.292;2022-08-21T11:42:26;4.90;;;4.50;;
1799;SDS011;919;48.274;12.292;2022-08-21T11:45:01;4.13;;;3.83;;
1799;SDS011;919;48.274;12.292;2022-08-21T11:47:41;7.83;;;7.13;;
1799;SDS011;919;48.274;12.292;2022-08-21T11:50:22;6.40;;;5.90;;
1799;SDS011;919;48.274;12.292;2022-08-21T11:52:55;5.50;;;5.10;;
1799;SDS011;919;48.274;12.292;2022-08-21T11:55:26;7.00;;;6.50;;
1799;SDS011;919;48.274;12.292;2022-08-21T11:57:58;6.03;;;5.57;;
1799;SDS011;919;48.274;12.292;2022-08-21T12:00:29;6.70;;;6.20;;
1799;SDS011;919;48.274;12.292;2022-08-21T12:03:04;4.97;;;4.67;;
1799;SDS011;919;48.274;12.292;2022-08-21T12:05:36;5.20;;;4.80;;
1799;SDS011;919;48.274;12.292;2022-08-21T12:08:09;5.90;;;5.50;;
1799;SDS011;919;48.274;12.292;2022-08-21T12:10:39;5.67;;;5.27;;
1799;SDS011;919;48.274;12.292;2022-08-21T12:13:10;5.20;;;4.80;;
1799;SDS011;919;48.274;12.292;2022-08-21T12:15:47;5.17;;;4.77;;
1799;SDS011;919;48.274;12.292;2022-08-21T12:18:22;5.70;;;5.20;;
1799;SDS011;919;48.274;12.292;2022-08-21T12:20:57;5.37;;;4.97;;
1799;SDS011;919;48.274;12.292;2022-08-21T12:23:29;4.90;;;4.60;;
1799;SDS011;919;48.274;12.292;2022-08-21T12:26:02;4.83;;;4.43;;
1799;SDS011;919;48.274;12.292;2022-08-21T12:28:50;3.97;;;3.70;;
1799;SDS011;919;48.274;12.292;2022-08-21T12:31:18;4.70;;;4.40;;
1799;SDS011;919;48.274;12.292;2022-08-21T12:33:52;3.80;;;3.50;;
1799;SDS011;919;48.274;12.292;2022-08-21T12:36:23;4.33;;;4.00;;
1799;SDS011;919;48.274;12.292;2022-08-21T12:38:54;4.53;;;4.20;;
1799;SDS011;919;48.274;12.292;2022-08-21T12:41:25;4.43;;;4.13;;
1799;SDS011;919;48.274;12.292;2022-08-21T12:43:56;3.87;;;3.63;;
1799;SDS011;919;48.274;12.292;2022-08-21T12:46:27;4.70;;;4.40;;
1799;SDS011;919;48.274;12.292;2022-08-21T12:48:59;4.37;;;4.07;;
1799;SDS011;919;48.274;12.292;2022-08-21T12:51:31;5.27;;;4.90;;
1799;SDS011;919;48.274;12.292;2022-08-21T12:54:05;5.07;;;4.67;;
1799;SDS011;919;48.274;12.292;2022-08-21T12:56:33;4.07;;;3.77;;
1799;SDS011;919;48.274;12.292;2022-08-21T12:59:01;4.83;;;4.43;;
1799;SDS011;919;48.274;12.292;2022-08-21T13:01:30;4.73;;;4.43;;
1799;SDS011;919;48.274;12.292;2022-08-21T13:04:01;5.17;;;4.67;;
1799;SDS011;919;48.274;12.292;2022-08-21T13:06:32;5.27;;;4.90;;
1799;SDS011;919;48.274;12.292;2022-08-21T13:09:06;4.50;;;4.20;;
1799;SDS011;919;48.274;12.292;2022-08-21T13:11:36;4.40;;;4.10;;
1799;SDS011;919;48.274;12.292;2022-08-21T13:14:03;4.27;;;3.97;;
1799;SDS011;919;48.274;12.292;2022-08-21T13:16:31;4.57;;;4.17;;
1799;SDS011;919;48.274;12.292;2022-08-21T13:18:59;4.20;;;3.90;;
1799;SDS011;919;48.274;12.292;2022-08-21T13:21:28;4.30;;;4.00;;
1799;SDS011;919;48.274;12.292;2022-08-21T13:24:15;4.20;;;3.90;;
1799;SDS011;919;48.274;12.292;2022-08-21T13:26:43;3.63;;;3.40;;
1799;SDS011;919;48.274;12.292;2022-08-21T13:29:10;3.97;;;3.77;;
1799;SDS011;919;48.274;12.292;2022-08-21T13:31:40;3.63;;;3.33;;
1799;SDS011;919;48.274;12.292;2022-08-21T13:34:12;9.00;;;4.97;;
1799;SDS011;919;48.274;12.292;2022-08-21T13:36:42;4.40;;;4.10;;
1799;SDS011;919;48.274;12.292;2022-08-21T13:39:11;4.37;;;4.07;;
1799;SDS011;919;48.274;12.292;2022-08-21T13:41:43;3.97;;;3.57;;
1799;SDS011;919;48.274;12.292;2022-08-21T13:44:15;5.10;;;4.37;;
1799;SDS011;919;48.274;12.292;2022-08-21T13:46:44;4.77;;;4.17;;
1799;SDS011;919;48.274;12.292;2022-08-21T13:49:13;5.20;;;3.90;;
1799;SDS011;919;48.274;12.292;2022-08-21T13:51:43;4.80;;;4.43;;
1799;SDS011;919;48.274;12.292;2022-08-21T13:54:23;6.00;;;4.00;;
1799;SDS011;919;48.274;12.292;2022-08-21T13:56:52;4.07;;;3.77;;
1799;SDS011;919;48.274;12.292;2022-08-21T13:59:24;4.07;;;3.77;;
1799;SDS011;919;48.274;12.292;2022-08-21T14:01:53;4.43;;;4.13;;
1799;SDS011;919;48.274;12.292;2022-08-21T14:04:25;3.97;;;3.67;;
1799;SDS011;919;48.274;12.292;2022-08-21T14:06:57;5.03;;;4.73;;
1799;SDS011;919;48.274;12.292;2022-08-21T14:09:26;4.70;;;4.30;;
1799;SDS011;919;48.274;12.292;2022-08-21T14:11:56;5.10;;;4.80;;
1799;SDS011;919;48.274;12.292;2022-08-21T14:14:27;5.13;;;4.73;;
1799;SDS011;919;48.274;12.292;2022-08-21T14:16:57;5.23;;;4.93;;
1799;SDS011;919;48.274;12.292;2022-08-21T14:19:26;7.60;;;4.30;;
1799;SDS011;919;48.274;12.292;2022-08-21T14:21:54;4.37;;;4.07;;
1799;SDS011;919;48.274;12.292;2022-08-21T14:24:27;5.03;;;4.63;;
1799;SDS011;919;48.274;12.292;2022-08-21T14:26:56;4.57;;;4.27;;
1799;SDS011;919;48.274;12.292;2022-08-21T14:29:31;4.40;;;4.10;;
1799;SDS011;919;48.274;12.292;2022-08-21T14:31:59;5.00;;;4.60;;
1799;SDS011;919;48.274;12.292;2022-08-21T14:34:35;4.73;;;4.37;;
1799;SDS011;919;48.274;12.292;2022-08-21T14:37:02;5.00;;;4.60;;
1799;SDS011;919;48.274;12.292;2022-08-21T14:39:31;4.90;;;4.60;;
1799;SDS011;919;48.274;12.292;2022-08-21T14:41:58;4.53;;;4.23;;
1799;SDS011;919;48.274;12.292;2022-08-21T14:44:26;5.70;;;5.30;;
1799;SDS011;919;48.274;12.292;2022-08-21T14:46:53;7.83;;;7.13;;
1799;SDS011;919;48.274;12.292;2022-08-21T14:49:20;5.13;;;4.73;;
1799;SDS011;919;48.274;12.292;2022-08-21T14:51:47;4.27;;;3.83;;
1799;SDS011;919;48.274;12.292;2022-08-21T14:54:18;4.73;;;4.43;;
1799;SDS011;919;48.274;12.292;2022-08-21T14:56:46;4.20;;;3.90;;
1799;SDS011;919;48.274;12.292;2022-08-21T14:59:13;4.10;;;3.80;;
1799;SDS011;919;48.274;12.292;2022-08-21T15:01:40;5.00;;;4.60;;
1799;SDS011;919;48.274;12.292;2022-08-21T15:04:07;4.10;;;3.80;;
1799;SDS011;919;48.274;12.292;2022-08-21T15:06:34;4.93;;;4.53;;
1799;SDS011;919;48.274;12.292;2022-08-21T15:09:01;4.60;;;4.27;;
1799;SDS011;919;48.274;12.292;2022-08-21T15:11:29;4.67;;;4.33;;
1799;SDS011;919;48.274;12.292;2022-08-21T15:13:57;5.80;;;5.20;;
1799;SDS011;919;48.274;12.292;2022-08-21T15:16:27;4.83;;;4.50;;
1799;SDS011;919;48.274;12.292;2022-08-21T15:18:56;5.00;;;4.50;;
1799;SDS011;919;48.274;12.292;2022-08-21T15:21:22;5.70;;;4.67;;
1799;SDS011;919;48.274;12.292;2022-08-21T15:23:49;4.40;;;4.10;;
1799;SDS011;919;48.274;12.292;2022-08-21T15:26:16;4.93;;;4.53;;
1799;SDS011;919;48.274;12.292;2022-08-21T15:28:42;5.23;;;4.40;;
1799;SDS011;919;48.274;12.292;2022-08-21T15:31:11;4.27;;;3.97;;